Inicio METAR Ruta Wind Satelite

Informe Meteorológico

Fecha: 2024/06/18 19:59:47 Local
2024.06.19 00:59 UTC


Operación:VFR
SKCL 190000Z 03004KT 9999 FEW020 BKN120 23/20 Q1013 NOSIG =

SKCL 182300Z 33011KT 9999 SCT025 BKN100 25/19 Q1012 NOSIG
SKCL 182200Z 36010KT 9999 SCT020TCU BKN100 25/19 Q1012 NOSIG RMK TCUSW
SKCL 182100Z 02012KT 9000 VCSH SCT020TCU BKN100 27/18 Q1011 NOSIG RMK TCU/S/SW VCSH/SE
SKCL 182000Z 02010KT 9000 VCSH SCT020TCU BKN120 29/20 Q1012 NOSIG RMK CB VCSH/E/SE
SKCL 181900Z VRB03KT 9999 SCT020 SCT120 29/20 Q1012 NOSIG

2024/06/18 18:42
TAF SKCL 181630Z 1818/1918 05005KT 9999 SCT023 PROB40
TEMPO 1820/1824 33010KT TS SCT020CB
TEMPO 1901/1905 DZ
TEMPO 1911/1915 5000 BR BKN012 TX30/1820Z TN19/1910Z